Time;durP1;ratioP1;P1;durP2;ratioP2;P2;SDS_P1;SDS_P2;PMS_P1;PMS_P2;Temp;Humidity;BMP_temperature;BMP_pressure;BME280_temperature;BME280_humidity;BME280_pressure;Samples;Min_cycle;Max_cycle;Signal;HPM_P1;HPM_P2
2022/02/14 00:02:24;;;;;;;;;;;;;;;-2.77;99.46;100437.55;1820602;79;20449;-76
2022/02/14 00:04:51;;;;;;;;;;;;;;;-2.77;99.34;100432.17;1820560;79;21530;-76
2022/02/14 00:07:18;;;;;;;;;;;;;;;-2.78;99.20;100426.48;1820457;79;20114;-76
2022/02/14 00:09:46;;;;;;;;;;;;;;;-2.79;99.07;100428.34;1820578;78;20434;-72
2022/02/14 00:12:13;;;;;;;;;;;;;;;-2.80;98.96;100419.97;1820445;79;20106;-73
2022/02/14 00:14:41;;;;;;;;;;;;;;;-2.83;98.85;100415.02;1805933;78;20168;-71
2022/02/14 00:17:07;;;;;;;;;;;;;;;-2.85;98.82;100418.42;1765152;80;21494;-71
2022/02/14 00:19:33;;;;;;;;;;;;;;;-2.88;98.87;100413.47;1791242;80;20079;-71
2022/02/14 00:22:00;;;;;;;;;;;;;;;-2.87;99.10;100415.12;1791391;80;20096;-74
2022/02/14 00:24:28;;;;;;;;;;;;;;;-2.86;99.16;100411.40;1791326;80;20144;-73
2022/02/14 00:26:54;;;;;;;;;;;;;;;-2.86;98.96;100404.68;1791415;80;20430;-74
2022/02/14 00:29:22;;;;;;;;;;;;;;;-2.86;98.92;100403.34;1791388;80;21513;-71
2022/02/14 00:31:49;;;;;;;;;;;;;;;-2.87;98.72;100408.40;1791159;80;20175;-72
2022/02/14 00:34:16;;;;;;;;;;;;;;;-2.89;98.61;100410.50;1791261;80;20084;-71
2022/02/14 00:36:42;;;;;;;;;;;;;;;-2.89;98.71;100415.88;1791304;80;20080;-71
2022/02/14 00:39:10;;;;;;;;;;;;;;;-2.88;98.70;100405.41;1791422;80;20084;-72
2022/02/14 00:41:36;;;;;;;;;;;;;;;-2.86;98.64;100410.05;1791259;80;21525;-73
2022/02/14 00:44:03;;;;;;;;;;;;;;;-2.85;98.44;100409.02;1791466;80;20116;-71
2022/02/14 00:46:31;;;;;;;;;;;;;;;-2.84;98.56;100404.47;1791307;80;20096;-71
2022/02/14 00:48:57;;;;;;;;;;;;;;;-2.84;98.37;100401.27;1791588;80;20336;-75
2022/02/14 00:51:24;;;;;;;;;;;;;;;-2.86;98.25;100401.99;1791307;80;20096;-75
2022/02/14 00:53:50;;;;;;;;;;;;;;;-2.86;98.17;100401.99;1791544;80;21106;-72
2022/02/14 00:56:16;;;;;;;;;;;;;;;-2.87;98.10;100392.80;1791283;80;20096;-73
2022/02/14 00:58:42;;;;;;;;;;;;;;;-2.89;97.92;100398.41;1791706;80;20427;-73
2022/02/14 01:01:09;;;;;;;;;;;;;;;-2.91;97.93;100396.45;1791246;80;20147;-73
2022/02/14 01:03:35;;;;;;;;;;;;;;;-2.92;97.88;100394.80;1791669;80;20096;-73
2022/02/14 01:06:01;;;;;;;;;;;;;;;-2.94;97.93;100385.28;1791306;80;21081;-73
2022/02/14 01:08:28;;;;;;;;;;;;;;;-2.96;97.94;100386.01;1791519;80;20416;-75
2022/02/14 01:10:54;;;;;;;;;;;;;;;-2.98;97.92;100382.19;1803748;78;20098;-74
2022/02/14 01:13:21;;;;;;;;;;;;;;;-2.98;97.95;100381.36;1823623;78;20098;-74
2022/02/14 01:15:47;;;;;;;;;;;;;;;-2.98;98.00;100382.70;1822154;78;20433;-74
2022/02/14 01:18:13;;;;;;;;;;;;;;;-2.97;98.09;100378.98;1820808;79;22089;-73
2022/02/14 01:20:40;;;;;;;;;;;;;;;-2.97;97.97;100380.33;1820350;79;20086;-73
2022/02/14 01:23:06;;;;;;;;;;;;;;;-3.00;97.82;100374.33;1820420;78;20125;-74
2022/02/14 01:25:32;;;;;;;;;;;;;;;-3.02;97.89;100368.86;1820491;79;20117;-73
2022/02/14 01:27:59;;;;;;;;;;;;;;;-3.04;97.82;100366.37;1820513;78;20209;-73
2022/02/14 01:30:25;;;;;;;;;;;;;;;-3.06;97.89;100364.41;1820489;79;20582;-73
2022/02/14 01:32:52;;;;;;;;;;;;;;;-3.07;97.91;100364.11;1820364;79;20078;-73
2022/02/14 01:35:18;;;;;;;;;;;;;;;-3.07;97.92;100371.34;1820466;79;20114;-73
2022/02/14 01:37:44;;;;;;;;;;;;;;;-3.08;97.88;100373.71;1820326;78;20422;-75
2022/02/14 01:40:10;;;;;;;;;;;;;;;-3.10;97.74;100375.78;1820603;79;20090;-74
2022/02/14 01:42:37;;;;;;;;;;;;;;;-3.14;97.64;100367.30;1820382;79;21100;-74
2022/02/14 01:45:06;;;;;;;;;;;;;;;-3.16;98.01;100364.52;1820399;79;20135;-74
2022/02/14 01:47:32;;;;;;;;;;;;;;;-3.17;98.03;100364.20;1820395;79;20110;-74
2022/02/14 01:49:59;;;;;;;;;;;;;;;-3.18;98.08;100361.21;1820410;78;20544;-74
2022/02/14 01:52:28;;;;;;;;;;;;;;;-3.19;98.06;100360.90;1820701;79;20174;-73
2022/02/14 01:54:53;;;;;;;;;;;;;;;-3.22;98.10;100359.97;1820388;78;21222;-73
2022/02/14 01:57:19;;;;;;;;;;;;;;;-3.22;98.14;100355.42;1820755;79;20137;-70
2022/02/14 01:59:46;;;;;;;;;;;;;;;-3.23;98.25;100352.95;1820395;79;20114;-69
2022/02/14 02:02:13;;;;;;;;;;;;;;;-3.25;98.19;100345.61;1820381;78;20082;-69
2022/02/14 02:04:43;;;;;;;;;;;;;;;-3.27;98.42;100339.62;1820452;79;20472;-72
2022/02/14 02:07:09;;;;;;;;;;;;;;;-3.28;98.49;100342.00;1820790;79;21073;-72
2022/02/14 02:09:36;;;;;;;;;;;;;;;-3.29;98.74;100342.52;1820410;79;20094;-75
2022/02/14 02:14:55;;;;;;;;;;;;;;;-3.29;98.87;100341.69;1820354;79;20066;-73
2022/02/14 02:17:27;;;;;;;;;;;;;;;-3.29;98.83;100334.97;1820309;78;20078;-74
2022/02/14 02:19:53;;;;;;;;;;;;;;;-3.32;98.74;100334.87;1820347;79;21272;-72
2022/02/14 02:22:19;;;;;;;;;;;;;;;-3.33;98.79;100333.22;1820687;79;20484;-71
2022/02/14 02:24:49;;;;;;;;;;;;;;;-3.37;98.83;100332.80;1820380;79;20090;-72
2022/02/14 02:27:15;;;;;;;;;;;;;;;-3.38;98.97;100331.14;1820505;79;20078;-72
2022/02/14 02:29:41;;;;;;;;;;;;;;;-3.42;99.18;100327.22;1820410;79;20118;-70
2022/02/14 02:32:08;;;;;;;;;;;;;;;-3.41;99.38;100325.36;1820472;79;21122;-69
2022/02/14 02:34:41;;;;;;;;;;;;;;;-3.41;99.50;100320.81;1820276;79;20078;-69
2022/02/14 02:37:06;;;;;;;;;;;;;;;-3.39;99.77;100325.47;1818727;79;20113;-73
2022/02/14 02:39:34;;;;;;;;;;;;;;;-3.37;99.75;100315.34;1820423;78;20220;-73
2022/02/14 02:42:00;;;;;;;;;;;;;;;-3.38;99.70;100316.89;1790836;79;20129;-73
2022/02/14 02:44:26;;;;;;;;;;;;;;;-3.39;99.60;100317.92;1820360;79;21211;-74
2022/02/14 02:46:53;;;;;;;;;;;;;;;-3.42;99.79;100312.97;1820424;79;20066;-73
2022/02/14 02:49:22;;;;;;;;;;;;;;;-3.42;99.90;100312.45;1820523;79;20118;-73
2022/02/14 02:51:49;;;;;;;;;;;;;;;-3.41;100.00;100314.63;1820437;79;20089;-73
2022/02/14 02:54:16;;;;;;;;;;;;;;;-3.41;99.98;100311.94;1791110;79;20424;-73
2022/02/14 02:56:44;;;;;;;;;;;;;;;-3.43;99.88;100310.80;1820656;79;21137;-72
2022/02/14 02:59:10;;;;;;;;;;;;;;;-3.44;99.81;100309.66;1820276;79;20146;-73
2022/02/14 03:01:37;;;;;;;;;;;;;;;-3.46;99.77;100309.87;1820624;79;20090;-72
2022/02/14 03:04:04;;;;;;;;;;;;;;;-3.50;99.93;100307.31;1820349;78;20097;-72
2022/02/14 03:06:31;;;;;;;;;;;;;;;-3.52;100.00;100305.87;1791121;79;20089;-73
2022/02/14 03:08:57;;;;;;;;;;;;;;;-3.53;100.00;100302.88;1820362;79;21104;-72
2022/02/14 03:11:24;;;;;;;;;;;;;;;-3.55;100.00;100304.42;1820379;79;20114;-72
2022/02/14 03:13:50;;;;;;;;;;;;;;;-3.57;99.90;100299.77;1820409;79;20444;-72
2022/02/14 03:16:17;;;;;;;;;;;;;;;-3.60;99.83;100298.84;1809025;78;20752;-72
2022/02/14 03:18:44;;;;;;;;;;;;;;;-3.62;100.00;100302.77;1793981;80;20119;-71
2022/02/14 03:21:11;;;;;;;;;;;;;;;-3.65;100.00;100301.31;1793939;80;21051;-71
2022/02/14 03:23:37;;;;;;;;;;;;;;;-3.67;100.00;100297.49;1794016;80;20079;-71
2022/02/14 03:26:04;;;;;;;;;;;;;;;-3.68;100.00;100297.70;1793950;80;20435;-71
2022/02/14 03:28:31;;;;;;;;;;;;;;;-3.68;100.00;100305.75;1794316;80;20088;-71
2022/02/14 03:30:58;;;;;;;;;;;;;;;-3.65;100.00;100294.61;1794353;78;20115;-71
2022/02/14 03:33:24;;;;;;;;;;;;;;;-3.65;100.00;100298.63;1767370;80;21149;-71
2022/02/14 03:35:51;;;;;;;;;;;;;;;-3.63;100.00;100293.88;1794160;80;20110;-71
2022/02/14 03:38:17;;;;;;;;;;;;;;;-3.64;100.00;100297.60;1794150;80;20168;-71
2022/02/14 03:40:43;;;;;;;;;;;;;;;-3.65;100.00;100298.63;1794189;80;20108;-71
2022/02/14 03:43:12;;;;;;;;;;;;;;;-3.66;100.00;100296.98;1794342;80;20423;-71
2022/02/14 03:45:40;;;;;;;;;;;;;;;-3.68;100.00;100299.04;1794134;80;22362;-70
2022/02/14 03:48:07;;;;;;;;;;;;;;;-3.70;100.00;100293.05;1794072;80;20104;-71
2022/02/14 03:50:33;;;;;;;;;;;;;;;-3.70;100.00;100294.39;1794235;80;20079;-71
2022/02/14 03:53:00;;;;;;;;;;;;;;;-3.70;100.00;100289.02;1767478;80;20119;-70
2022/02/14 03:55:26;;;;;;;;;;;;;;;-3.71;100.00;100295.42;1767544;80;20138;-71
2022/02/14 03:57:52;;;;;;;;;;;;;;;-3.68;100.00;100296.36;1794259;80;21113;-70
2022/02/14 04:00:20;;;;;;;;;;;;;;;-3.68;100.00;100287.80;1794446;78;20088;-70
2022/02/14 04:02:46;;;;;;;;;;;;;;;-3.69;100.00;100294.70;1794130;80;20119;-70
2022/02/14 04:05:14;;;;;;;;;;;;;;;-3.70;100.00;100289.02;1767519;80;20450;-73
2022/02/14 04:07:41;;;;;;;;;;;;;;;-3.69;100.00;100290.68;1767533;80;20119;-74
2022/02/14 04:10:10;;;;;;;;;;;;;;;-3.69;100.00;100283.45;1794187;80;20096;-74
2022/02/14 04:12:38;;;;;;;;;;;;;;;-3.70;100.00;100285.83;1794132;80;20104;-71
2022/02/14 04:15:06;;;;;;;;;;;;;;;-3.71;100.00;100276.12;1794078;80;20418;-74
2022/02/14 04:17:32;;;;;;;;;;;;;;;-3.71;100.00;100268.59;1815922;78;20114;-74
2022/02/14 04:19:58;;;;;;;;;;;;;;;-3.70;100.00;100265.70;1820640;79;20418;-70
2022/02/14 04:22:26;;;;;;;;;;;;;;;-3.72;100.00;100265.08;1820456;79;21883;-73
2022/02/14 04:24:52;;;;;;;;;;;;;;;-3.73;100.00;100263.95;1800761;79;20078;-71
2022/02/14 04:27:19;;;;;;;;;;;;;;;-3.77;100.00;100261.36;1789514;80;20107;-72
2022/02/14 04:29:45;;;;;;;;;;;;;;;-3.78;100.00;100258.36;1768408;80;20094;-74
2022/02/14 04:32:11;;;;;;;;;;;;;;;-3.80;100.00;100263.94;1790319;80;20151;-73
2022/02/14 04:34:37;;;;;;;;;;;;;;;-3.82;100.00;100267.86;1785784;80;21495;-73
2022/02/14 04:37:03;;;;;;;;;;;;;;;-3.83;100.00;100266.20;1790545;80;20113;-71
2022/02/14 04:39:32;;;;;;;;;;;;;;;-3.82;100.00;100275.91;1791024;80;20145;-72
2022/02/14 04:41:58;;;;;;;;;;;;;;;-3.83;100.00;100270.23;1790481;80;20072;-72
2022/02/14 04:44:24;;;;;;;;;;;;;;;-3.80;100.00;100271.16;1788909;80;20443;-72
2022/02/14 04:46:51;;;;;;;;;;;;;;;-3.80;100.00;100285.41;1790219;80;21511;-73
2022/02/14 04:49:17;;;;;;;;;;;;;;;-3.79;100.00;100271.47;1788170;80;20112;-72
2022/02/14 04:51:43;;;;;;;;;;;;;;;-3.79;100.00;100273.64;1788229;80;20127;-76
2022/02/14 04:54:09;;;;;;;;;;;;;;;-3.80;100.00;100269.81;1788204;80;20124;-75
2022/02/14 04:56:36;;;;;;;;;;;;;;;-3.81;100.00;100270.84;1789393;79;20109;-76
2022/02/14 04:59:02;;;;;;;;;;;;;;;-3.84;100.00;100272.59;1788210;80;21140;-71
2022/02/14 05:01:28;;;;;;;;;;;;;;;-3.84;100.00;100276.62;1808725;79;20078;-74
2022/02/14 05:03:54;;;;;;;;;;;;;;;-3.84;100.00;100276.11;1820392;79;20094;-72
2022/02/14 05:06:21;;;;;;;;;;;;;;;-3.86;100.00;100282.70;1806947;79;20096;-71
2022/02/14 05:08:48;;;;;;;;;;;;;;;-3.87;100.00;100283.22;1753007;80;20140;-73
2022/02/14 05:11:14;;;;;;;;;;;;;;;-3.88;100.00;100283.42;1790411;80;21108;-73
2022/02/14 05:13:41;;;;;;;;;;;;;;;-3.86;100.00;100292.09;1790034;80;20467;-70
2022/02/14 05:16:08;;;;;;;;;;;;;;;-3.88;100.00;100282.91;1787737;80;20114;-71
2022/02/14 05:18:34;;;;;;;;;;;;;;;-3.89;100.00;100291.16;1782251;80;20081;-77
2022/02/14 05:21:01;;;;;;;;;;;;;;;-3.89;100.00;100295.19;1783191;79;20116;-72
2022/02/14 05:23:27;;;;;;;;;;;;;;;-3.88;100.00;100300.34;1778879;79;21115;-71
2022/02/14 05:25:53;;;;;;;;;;;;;;;-3.88;100.00;100303.03;1782660;79;20166;-73
2022/02/14 05:28:20;;;;;;;;;;;;;;;-3.88;100.00;100304.89;1783880;79;20155;-74
2022/02/14 05:30:47;;;;;;;;;;;;;;;-3.87;100.00;100300.66;1781987;80;20182;-76
2022/02/14 05:33:13;;;;;;;;;;;;;;;-3.85;100.00;100301.80;1761472;80;20184;-76
2022/02/14 05:35:41;;;;;;;;;;;;;;;-3.85;100.00;100305.30;1783077;80;21094;-75
2022/02/14 05:38:10;;;;;;;;;;;;;;;-3.84;100.00;100311.50;1782079;80;20427;-76
2022/02/14 05:40:36;;;;;;;;;;;;;;;-3.84;100.00;100309.64;1782957;80;20183;-75
2022/02/14 05:43:04;;;;;;;;;;;;;;;-3.80;100.00;100311.41;1783071;80;20088;-78
2022/02/14 05:45:31;;;;;;;;;;;;;;;-3.80;100.00;100313.57;1783517;80;20088;-74
2022/02/14 05:47:57;;;;;;;;;;;;;;;-3.77;100.00;100315.84;1783306;80;21373;-73
2022/02/14 05:50:24;;;;;;;;;;;;;;;-3.74;100.00;100317.30;1783401;80;20080;-71
2022/02/14 05:52:50;;;;;;;;;;;;;;;-3.73;100.00;100326.48;1783871;80;20160;-71
2022/02/14 05:55:16;;;;;;;;;;;;;;;-3.70;100.00;100327.94;1782975;80;20113;-71
2022/02/14 05:57:43;;;;;;;;;;;;;;;-3.67;100.00;100334.23;1783693;80;20067;-72
2022/02/14 06:00:10;;;;;;;;;;;;;;;-3.63;100.00;100344.88;1783133;80;21792;-70
2022/02/14 06:02:37;;;;;;;;;;;;;;;-3.58;100.00;100335.70;1781828;80;20786;-80
2022/02/14 06:05:07;;;;;;;;;;;;;;;-3.55;100.00;100346.02;1783330;80;20114;-80
2022/02/14 06:07:34;;;;;;;;;;;;;;;-3.51;100.00;100349.95;1782959;80;20106;-78
2022/02/14 06:10:00;;;;;;;;;;;;;;;-3.46;100.00;100349.31;1783276;80;20087;-75
2022/02/14 06:12:27;;;;;;;;;;;;;;;-3.43;100.00;100352.41;1783332;80;21976;-74
2022/02/14 06:14:53;;;;;;;;;;;;;;;-3.37;100.00;100360.98;1782455;80;20139;-76
2022/02/14 06:17:19;;;;;;;;;;;;;;;-3.32;100.00;100354.48;1785637;80;20162;-75
2022/02/14 06:19:46;;;;;;;;;;;;;;;-3.28;100.00;100350.88;1785516;80;20080;-73
2022/02/14 06:22:12;;;;;;;;;;;;;;;-3.23;100.00;100355.11;1783154;80;20147;-69
2022/02/14 06:24:38;;;;;;;;;;;;;;;-3.16;100.00;100367.20;1788960;80;21141;-73
2022/02/14 06:27:05;;;;;;;;;;;;;;;-3.10;100.00;100371.75;1790613;80;20089;-78
2022/02/14 06:29:31;;;;;;;;;;;;;;;-3.04;100.00;100372.27;1790509;79;20174;-78
2022/02/14 06:31:58;;;;;;;;;;;;;;;-2.98;100.00;100367.41;1790219;80;20094;-79
2022/02/14 06:34:25;;;;;;;;;;;;;;;-2.92;100.00;100358.52;1790487;80;20106;-76
2022/02/14 06:36:51;;;;;;;;;;;;;;;-2.86;100.00;100364.38;1790394;79;21737;-78
2022/02/14 06:39:17;;;;;;;;;;;;;;;-2.80;100.00;100360.86;1790214;80;20090;-82
2022/02/14 06:41:45;;;;;;;;;;;;;;;-2.72;100.00;100361.98;1790624;80;20158;-78
2022/02/14 06:44:11;;;;;;;;;;;;;;;-2.64;100.00;100366.83;1791460;80;20082;-77
2022/02/14 06:46:39;;;;;;;;;;;;;;;-2.57;100.00;100366.30;1791945;79;20245;-79
2022/02/14 06:49:06;;;;;;;;;;;;;;;-2.50;100.00;100357.70;1788659;80;21559;-76
2022/02/14 06:51:39;;;;;;;;;;;;;;;-2.26;100.00;100359.67;1791830;80;20082;-77
2022/02/14 06:54:05;;;;;;;;;;;;;;;-1.82;99.78;100366.94;1787146;79;20143;-78
2022/02/14 06:56:31;;;;;;;;;;;;;;;-1.58;97.76;100358.59;1802987;79;20090;-79
2022/02/14 06:58:58;;;;;;;;;;;;;;;-1.52;97.42;100357.73;1804766;79;20169;-72
2022/02/14 07:01:24;;;;;;;;;;;;;;;-1.47;95.85;100355.22;1788911;79;21202;-73
2022/02/14 07:03:50;;;;;;;;;;;;;;;-1.26;95.53;100354.56;1790015;79;20193;-72
2022/02/14 07:06:21;;;;;;;;;;;;;;;-0.86;94.59;100351.81;1789760;80;20160;-70
2022/02/14 07:08:51;;;;;;;;;;;;;;;-0.39;93.08;100362.41;1786309;80;20201;-72
2022/02/14 07:11:21;;;;;;;;;;;;;;;0.05;89.58;100363.13;1791414;80;20121;-82
2022/02/14 07:13:55;;;;;;;;;;;;;;;0.36;87.81;100359.92;1758967;80;40376;-75
2022/02/14 07:16:22;;;;;;;;;;;;;;;0.62;86.14;100358.16;1792604;80;20277;-78
2022/02/14 07:18:58;;;;;;;;;;;;;;;0.87;84.05;100351.23;1788832;79;20088;-82
2022/02/14 07:21:29;;;;;;;;;;;;;;;1.06;84.09;100347.38;1790827;80;20090;-72
2022/02/14 07:23:56;;;;;;;;;;;;;;;1.32;82.57;100349.59;1800037;79;20138;-76
2022/02/14 07:26:27;;;;;;;;;;;;;;;1.50;79.65;100349.18;1792446;79;21130;-78
2022/02/14 07:28:57;;;;;;;;;;;;;;;1.48;78.85;100348.59;1792795;79;20421;-79
2022/02/14 07:31:25;;;;;;;;;;;;;;;1.54;78.96;100344.94;1773141;80;20432;-78
2022/02/14 07:33:52;;;;;;;;;;;;;;;1.69;78.01;100337.16;1792930;80;20646;-84
2022/02/14 07:36:21;;;;;;;;;;;;;;;1.84;77.91;100336.09;1790866;80;20175;-87
2022/02/14 07:38:50;;;;;;;;;;;;;;;2.02;76.43;100349.18;1754313;80;20628;-82
2022/02/14 07:41:19;;;;;;;;;;;;;;;2.13;76.31;100345.61;1787527;80;20088;-76
2022/02/14 07:43:50;;;;;;;;;;;;;;;2.25;74.86;100343.16;1787490;80;20112;-72
2022/02/14 07:46:15;;;;;;;;;;;;;;;2.33;74.23;100339.20;1786391;79;20113;-73
2022/02/14 07:48:46;;;;;;;;;;;;;;;2.35;73.26;100341.67;1767504;80;20074;-78
2022/02/14 07:51:18;;;;;;;;;;;;;;;2.32;72.68;100349.75;1791577;80;20776;-71
2022/02/14 07:53:47;;;;;;;;;;;;;;;2.24;73.19;100335.27;1792476;80;20118;-72
2022/02/14 07:56:16;;;;;;;;;;;;;;;2.26;73.28;100331.25;1799096;79;20133;-70
2022/02/14 07:58:49;;;;;;;;;;;;;;;2.35;73.44;100336.25;1792387;78;20799;-76
2022/02/14 08:01:18;;;;;;;;;;;;;;;2.46;72.33;100340.27;1760104;81;20114;-69
2022/02/14 08:03:45;;;;;;;;;;;;;;;2.45;70.82;100331.84;1756701;81;21192;-68
2022/02/14 08:06:12;;;;;;;;;;;;;;;2.38;71.96;100327.11;1788794;80;20096;-69
2022/02/14 08:08:40;;;;;;;;;;;;;;;2.41;72.17;100323.09;1789863;80;20129;-72
2022/02/14 08:11:10;;;;;;;;;;;;;;;2.41;71.64;100319.03;1789827;79;20078;-70
2022/02/14 08:13:40;;;;;;;;;;;;;;;2.54;71.39;100316.02;1760370;80;20110;-71
2022/02/14 08:16:08;;;;;;;;;;;;;;;2.53;70.55;100319.26;1788776;80;21147;-72
2022/02/14 08:18:38;;;;;;;;;;;;;;;2.63;72.04;100320.80;1789306;80;20414;-71
2022/02/14 08:21:03;;;;;;;;;;;;;;;2.93;70.59;100315.56;1787142;80;20112;-74
2022/02/14 08:23:33;;;;;;;;;;;;;;;3.01;69.39;100314.33;1787741;80;20120;-72
2022/02/14 08:25:59;;;;;;;;;;;;;;;3.09;69.58;100321.52;1788530;80;20122;-73
2022/02/14 08:28:26;;;;;;;;;;;;;;;3.28;68.43;100320.73;1789426;80;21068;-73
2022/02/14 08:31:01;;;;;;;;;;;;;;;3.44;67.58;100315.80;1773845;80;20134;-70
2022/02/14 08:33:31;;;;;;;;;;;;;;;3.38;66.11;100324.95;1789798;80;20417;-71
2022/02/14 08:36:00;;;;;;;;;;;;;;;3.22;67.15;100336.64;1759462;80;20257;-72
2022/02/14 08:38:28;;;;;;;;;;;;;;;3.21;67.56;100334.47;1761565;80;20495;-69
2022/02/14 08:40:54;;;;;;;;;;;;;;;3.26;67.10;100324.22;1772933;80;21107;-70
2022/02/14 08:43:27;;;;;;;;;;;;;;;3.38;68.84;100329.02;1767704;81;20109;-68
2022/02/14 08:45:53;;;;;;;;;;;;;;;3.75;67.71;100331.95;1783354;79;20108;-68
2022/02/14 08:48:21;;;;;;;;;;;;;;;4.12;65.68;100319.06;1785964;80;20160;-69
2022/02/14 08:50:49;;;;;;;;;;;;;;;4.20;64.47;100328.95;1792204;80;20094;-70
2022/02/14 08:53:21;;;;;;;;;;;;;;;4.28;65.01;100331.21;1790692;79;21102;-68
2022/02/14 08:55:46;;;;;;;;;;;;;;;4.52;64.75;100334.46;1789742;79;20167;-70
2022/02/14 08:58:12;;;;;;;;;;;;;;;4.71;62.35;100320.47;1809747;79;20098;-69
2022/02/14 09:00:43;;;;;;;;;;;;;;;4.62;62.58;100329.66;1789774;79;20100;-72
2022/02/14 09:03:10;;;;;;;;;;;;;;;4.48;62.71;100335.23;1790744;79;20080;-69
2022/02/14 09:05:38;;;;;;;;;;;;;;;4.44;62.91;100330.84;1798036;79;21031;-69
2022/02/14 09:08:08;;;;;;;;;;;;;;;4.57;62.73;100327.71;1774152;80;20125;-70
2022/02/14 09:10:42;;;;;;;;;;;;;;;4.62;61.72;100333.17;1774633;80;20122;-67
2022/02/14 09:13:08;;;;;;;;;;;;;;;4.60;62.64;100334.53;1792118;79;20409;-70
2022/02/14 09:15:37;;;;;;;;;;;;;;;4.77;62.87;100332.49;1789699;79;20133;-68
2022/02/14 09:18:07;;;;;;;;;;;;;;;5.07;62.15;100329.22;1788033;78;21156;-71
2022/02/14 09:20:37;;;;;;;;;;;;;;;5.25;60.62;100324.70;1786515;80;20147;-69
2022/02/14 09:23:05;;;;;;;;;;;;;;;5.33;59.90;100334.82;1787912;80;20072;-71
2022/02/14 09:25:34;;;;;;;;;;;;;;;5.22;58.69;100340.19;1754689;80;20151;-72
2022/02/14 09:28:01;;;;;;;;;;;;;;;4.98;58.51;100341.12;1787832;80;20112;-73
2022/02/14 09:30:31;;;;;;;;;;;;;;;4.83;59.57;100338.27;1787477;80;21020;-73
2022/02/14 09:32:58;;;;;;;;;;;;;;;4.75;59.96;100350.97;1788691;80;20285;-69
2022/02/14 09:35:30;;;;;;;;;;;;;;;4.69;59.53;100334.86;1790216;80;20126;-70
2022/02/14 09:38:00;;;;;;;;;;;;;;;4.70;60.03;100339.22;1789904;80;20456;-71
2022/02/14 09:40:27;;;;;;;;;;;;;;;4.95;59.51;100335.37;1789722;80;20172;-78
2022/02/14 09:42:59;;;;;;;;;;;;;;;5.11;59.29;100326.80;1786195;79;20135;-74
2022/02/14 09:45:43;;;;;;;;;;;;;;;5.15;58.57;100327.38;1783340;78;20415;-78
2022/02/14 09:48:05;;;;;;;;;;;;;;;5.09;58.07;100322.16;1782617;79;20150;-71
2022/02/14 09:50:37;;;;;;;;;;;;;;;5.11;59.30;100318.09;1763105;80;20106;-71
2022/02/14 09:53:06;;;;;;;;;;;;;;;5.38;58.54;100307.09;1778725;80;20073;-73
2022/02/14 09:55:37;;;;;;;;;;;;;;;5.64;58.47;100312.14;1782353;80;21127;-75
2022/02/14 09:58:12;;;;;;;;;;;;;;;5.94;58.54;100305.47;1787307;80;20076;-76
2022/02/14 10:00:39;;;;;;;;;;;;;;;6.26;56.62;100312.67;1746528;80;20414;-79
2022/02/14 10:03:14;;;;;;;;;;;;;;;6.37;55.99;100311.58;1737418;82;20118;-73
2022/02/14 10:05:50;;;;;;;;;;;;;;;6.49;54.15;100304.52;1737371;82;20543;-73
2022/02/14 10:08:22;;;;;;;;;;;;;;;6.54;54.08;100298.52;1767999;80;20122;-73
2022/02/14 10:10:51;;;;;;;;;;;;;;;6.71;55.33;100301.55;1738206;81;20174;-72
2022/02/14 10:13:32;;;;;;;;;;;;;;;7.02;54.51;100292.25;1738247;81;20145;-74
2022/02/14 10:16:11;;;;;;;;;;;;;;;7.16;53.59;100298.79;1718107;82;20142;-72
2022/02/14 10:18:41;;;;;;;;;;;;;;;7.07;51.57;100292.79;1750614;80;20116;-75
2022/02/14 10:21:26;;;;;;;;;;;;;;;6.70;52.29;100294.45;1788264;80;21147;-82
2022/02/14 10:24:08;;;;;;;;;;;;;;;6.48;52.64;100298.24;1788656;79;20326;-77
2022/02/14 10:26:39;;;;;;;;;;;;;;;6.34;52.79;100294.97;1787555;79;20095;-76
2022/02/14 10:29:10;;;;;;;;;;;;;;;6.19;53.64;100291.11;1791976;79;20523;-78
2022/02/14 10:31:42;;;;;;;;;;;;;;;6.40;53.73;100291.13;1786678;79;20088;-79
2022/02/14 10:34:08;;;;;;;;;;;;;;;6.65;53.01;100278.08;1760258;81;21137;-79
2022/02/14 10:36:37;;;;;;;;;;;;;;;6.83;50.67;100277.54;1782090;79;20084;-77
2022/02/14 10:39:15;;;;;;;;;;;;;;;6.83;50.74;100280.27;1786592;80;20112;-76
2022/02/14 10:41:44;;;;;;;;;;;;;;;6.86;50.92;100278.36;1788635;80;20116;-74
2022/02/14 10:45:07;;;;;;;;;;;;;;;7.02;50.87;100271.77;1787457;79;20486;-82
2022/02/14 10:46:46;;;;;;;;;;;;;;;7.26;50.29;100275.56;1783319;80;21164;-80
2022/02/14 10:49:14;;;;;;;;;;;;;;;7.36;48.39;100262.98;1787577;80;20308;-82
2022/02/14 10:51:44;;;;;;;;;;;;;;;7.26;49.22;100264.64;1787944;80;20188;-88
2022/02/14 10:54:12;;;;;;;;;;;;;;;7.27;48.39;100272.28;1787618;80;20084;-83
2022/02/14 10:56:42;;;;;;;;;;;;;;;7.20;48.18;100279.94;1787041;80;20298;-75
2022/02/14 10:59:17;;;;;;;;;;;;;;;7.11;48.90;100257.84;1746343;80;20604;-76
2022/02/14 11:01:47;;;;;;;;;;;;;;;7.09;49.17;100272.31;1789292;80;20138;-78
2022/02/14 11:04:18;;;;;;;;;;;;;;;7.27;48.96;100257.27;1790152;80;20118;-76
2022/02/14 11:06:43;;;;;;;;;;;;;;;7.51;47.29;100262.36;1785918;80;20497;-74
2022/02/14 11:09:14;;;;;;;;;;;;;;;7.57;46.83;100257.70;1785219;80;20102;-74
2022/02/14 11:11:47;;;;;;;;;;;;;;;7.44;46.99;100264.59;1790490;80;20539;-77
2022/02/14 11:14:22;;;;;;;;;;;;;;;7.07;45.96;100262.21;1789418;80;20110;-76
2022/02/14 11:16:51;;;;;;;;;;;;;;;6.76;47.22;100254.62;1790483;80;20114;-76
2022/02/14 11:19:19;;;;;;;;;;;;;;;6.91;46.47;100259.25;1785472;80;20229;-75
2022/02/14 11:21:52;;;;;;;;;;;;;;;7.06;46.01;100260.58;1783530;80;20082;-74
2022/02/14 11:24:31;;;;;;;;;;;;;;;7.16;44.92;100248.27;1783305;80;21083;-73
2022/02/14 11:27:05;;;;;;;;;;;;;;;7.14;45.00;100249.09;1760935;80;20150;-74
2022/02/14 11:29:52;;;;;;;;;;;;;;;7.19;44.54;100244.17;1765054;80;20082;-73
2022/02/14 11:32:25;;;;;;;;;;;;;;;7.27;44.95;100244.43;1789542;79;20136;-75
2022/02/14 11:34:58;;;;;;;;;;;;;;;7.49;43.77;100249.56;1782139;80;20212;-74
2022/02/14 11:37:27;;;;;;;;;;;;;;;7.62;44.13;100235.28;1783394;80;21117;-75
2022/02/14 11:39:58;;;;;;;;;;;;;;;7.94;43.00;100238.14;1755930;80;20078;-76
2022/02/14 11:42:25;;;;;;;;;;;;;;;8.06;40.35;100235.08;1759760;80;20417;-71
2022/02/14 11:45:02;;;;;;;;;;;;;;;7.98;39.26;100221.45;1782991;80;20166;-75
2022/02/14 11:47:49;;;;;;;;;;;;;;;7.75;39.22;100220.74;1756525;80;20091;-79
2022/02/14 11:50:10;;;;;;;;;;;;;;;7.53;40.33;100222.47;1778348;80;21164;-82
2022/02/14 11:52:39;;;;;;;;;;;;;;;7.60;40.35;100216.16;1781510;80;20159;-84
2022/02/14 11:55:10;;;;;;;;;;;;;;;7.81;39.74;100221.80;1783333;80;20092;-79
2022/02/14 11:57:38;;;;;;;;;;;;;;;7.72;36.81;100215.29;1783279;80;20455;-76
2022/02/14 12:00:17;;;;;;;;;;;;;;;7.54;37.73;100220.83;1777746;80;20168;-80
2022/02/14 12:02:58;;;;;;;;;;;;;;;7.59;37.57;100222.72;1783259;80;21150;-75
2022/02/14 12:05:51;;;;;;;;;;;;;;;7.81;36.99;100233.29;1781649;80;20464;-75
2022/02/14 12:08:19;;;;;;;;;;;;;;;7.92;37.06;100217.11;1782503;80;20103;-76
2022/02/14 12:10:57;;;;;;;;;;;;;;;8.21;37.31;100219.36;1781714;80;20171;-80
2022/02/14 12:13:25;;;;;;;;;;;;;;;8.48;36.00;100211.28;1783309;80;20097;-76
2022/02/14 12:21:19;;;;;;;;;;;;;;;8.35;33.19;100205.90;1783292;80;20460;-75
2022/02/14 12:23:51;;;;;;;;;;;;;;;8.20;32.12;100200.50;1758557;80;20068;-74
2022/02/14 12:26:22;;;;;;;;;;;;;;;8.12;32.59;100206.56;1782442;80;20145;-78
2022/02/14 12:31:45;;;;;;;;;;;;;;;8.22;34.19;100190.09;1783761;80;20157;-79
2022/02/14 12:34:26;;;;;;;;;;;;;;;8.38;32.61;100194.38;1782780;80;20132;-78
2022/02/14 12:37:04;;;;;;;;;;;;;;;8.41;33.04;100190.27;1783630;80;20131;-76
2022/02/14 12:39:40;;;;;;;;;;;;;;;8.50;31.77;100181.16;1783584;80;20093;-73
2022/02/14 12:42:14;;;;;;;;;;;;;;;8.39;32.21;100182.89;1782578;80;21900;-82
2022/02/14 12:44:44;;;;;;;;;;;;;;;8.32;32.68;100177.71;1759366;80;20130;-79
2022/02/14 12:47:11;;;;;;;;;;;;;;;8.25;32.43;100182.14;1783414;80;20141;-77
2022/02/14 12:49:42;;;;;;;;;;;;;;;8.30;33.47;100171.70;1783389;80;20110;-77
2022/02/14 12:52:11;;;;;;;;;;;;;;;8.47;32.48;100178.99;1783794;80;20131;-85
2022/02/14 12:54:39;;;;;;;;;;;;;;;8.73;32.96;100173.27;1783399;80;21103;-79
2022/02/14 12:57:09;;;;;;;;;;;;;;;8.99;32.86;100171.91;1783035;80;20078;-77